sensor_id;sensor_type;location;lat;lon;timestamp;P1;durP1;ratioP1;P2;durP2;ratioP2
26325;SDS011;14032;52.510;7.342;2023-11-21T00:00:55;71.28;;;24.65;;
26325;SDS011;14032;52.510;7.342;2023-11-21T00:03:20;74.10;;;26.40;;
26325;SDS011;14032;52.510;7.342;2023-11-21T00:05:48;68.78;;;24.17;;
26325;SDS011;14032;52.510;7.342;2023-11-21T00:08:14;76.55;;;26.58;;
26325;SDS011;14032;52.510;7.342;2023-11-21T00:10:39;83.00;;;27.08;;
26325;SDS011;14032;52.510;7.342;2023-11-21T00:13:05;73.47;;;25.58;;
26325;SDS011;14032;52.510;7.342;2023-11-21T00:15:30;71.85;;;26.35;;
26325;SDS011;14032;52.510;7.342;2023-11-21T00:17:56;79.00;;;26.80;;
26325;SDS011;14032;52.510;7.342;2023-11-21T00:20:22;87.35;;;27.20;;
26325;SDS011;14032;52.510;7.342;2023-11-21T00:22:47;82.60;;;27.55;;
26325;SDS011;14032;52.510;7.342;2023-11-21T00:25:13;66.18;;;25.73;;
26325;SDS011;14032;52.510;7.342;2023-11-21T00:27:40;79.72;;;26.70;;
26325;SDS011;14032;52.510;7.342;2023-11-21T00:30:06;88.75;;;27.17;;
26325;SDS011;14032;52.510;7.342;2023-11-21T00:32:33;82.18;;;27.60;;
26325;SDS011;14032;52.510;7.342;2023-11-21T00:35:00;84.35;;;28.15;;
26325;SDS011;14032;52.510;7.342;2023-11-21T00:37:26;85.90;;;28.60;;
26325;SDS011;14032;52.510;7.342;2023-11-21T00:39:52;80.35;;;27.88;;
26325;SDS011;14032;52.510;7.342;2023-11-21T00:42:17;81.10;;;28.63;;
26325;SDS011;14032;52.510;7.342;2023-11-21T00:44:43;87.10;;;27.45;;
26325;SDS011;14032;52.510;7.342;2023-11-21T00:47:08;81.10;;;27.50;;
26325;SDS011;14032;52.510;7.342;2023-11-21T00:49:34;88.88;;;26.90;;
26325;SDS011;14032;52.510;7.342;2023-11-21T00:51:59;73.13;;;25.85;;
26325;SDS011;14032;52.510;7.342;2023-11-21T00:54:26;80.22;;;27.60;;
26325;SDS011;14032;52.510;7.342;2023-11-21T00:56:52;87.45;;;28.90;;
26325;SDS011;14032;52.510;7.342;2023-11-21T00:59:18;90.85;;;28.98;;
26325;SDS011;14032;52.510;7.342;2023-11-21T01:01:44;85.78;;;27.80;;
26325;SDS011;14032;52.510;7.342;2023-11-21T01:04:09;79.22;;;27.08;;
26325;SDS011;14032;52.510;7.342;2023-11-21T01:06:35;85.97;;;28.38;;
26325;SDS011;14032;52.510;7.342;2023-11-21T01:09:01;89.10;;;27.90;;
26325;SDS011;14032;52.510;7.342;2023-11-21T01:11:32;83.13;;;28.45;;
26325;SDS011;14032;52.510;7.342;2023-11-21T01:14:01;82.22;;;27.17;;
26325;SDS011;14032;52.510;7.342;2023-11-21T01:16:28;95.28;;;29.25;;
26325;SDS011;14032;52.510;7.342;2023-11-21T01:18:54;94.50;;;28.17;;
26325;SDS011;14032;52.510;7.342;2023-11-21T01:21:19;80.38;;;25.88;;
26325;SDS011;14032;52.510;7.342;2023-11-21T01:23:45;86.50;;;27.50;;
26325;SDS011;14032;52.510;7.342;2023-11-21T01:26:11;93.78;;;28.60;;
26325;SDS011;14032;52.510;7.342;2023-11-21T01:28:36;85.07;;;27.50;;
26325;SDS011;14032;52.510;7.342;2023-11-21T01:31:02;90.57;;;28.08;;
26325;SDS011;14032;52.510;7.342;2023-11-21T01:33:27;84.57;;;26.92;;
26325;SDS011;14032;52.510;7.342;2023-11-21T01:35:53;87.88;;;27.08;;
26325;SDS011;14032;52.510;7.342;2023-11-21T01:38:19;78.93;;;26.58;;
26325;SDS011;14032;52.510;7.342;2023-11-21T01:40:45;82.50;;;27.98;;
26325;SDS011;14032;52.510;7.342;2023-11-21T01:43:11;90.88;;;29.58;;
26325;SDS011;14032;52.510;7.342;2023-11-21T01:45:36;87.40;;;26.77;;
26325;SDS011;14032;52.510;7.342;2023-11-21T01:48:02;88.22;;;28.23;;
26325;SDS011;14032;52.510;7.342;2023-11-21T01:50:28;89.70;;;27.83;;
26325;SDS011;14032;52.510;7.342;2023-11-21T01:52:54;93.10;;;28.92;;
26325;SDS011;14032;52.510;7.342;2023-11-21T01:55:20;96.80;;;28.42;;
26325;SDS011;14032;52.510;7.342;2023-11-21T01:57:46;85.93;;;27.50;;
26325;SDS011;14032;52.510;7.342;2023-11-21T02:00:13;95.60;;;28.40;;
26325;SDS011;14032;52.510;7.342;2023-11-21T02:02:45;93.03;;;28.27;;
26325;SDS011;14032;52.510;7.342;2023-11-21T02:05:12;85.38;;;27.25;;
26325;SDS011;14032;52.510;7.342;2023-11-21T02:07:40;95.68;;;28.92;;
26325;SDS011;14032;52.510;7.342;2023-11-21T02:10:07;89.57;;;29.50;;
26325;SDS011;14032;52.510;7.342;2023-11-21T02:12:34;102.35;;;30.85;;
26325;SDS011;14032;52.510;7.342;2023-11-21T02:15:04;99.00;;;29.48;;
26325;SDS011;14032;52.510;7.342;2023-11-21T02:17:34;106.25;;;30.25;;
26325;SDS011;14032;52.510;7.342;2023-11-21T02:20:00;101.65;;;29.80;;
26325;SDS011;14032;52.510;7.342;2023-11-21T02:22:26;111.10;;;29.98;;
26325;SDS011;14032;52.510;7.342;2023-11-21T02:24:56;103.53;;;29.25;;
26325;SDS011;14032;52.510;7.342;2023-11-21T02:27:22;107.32;;;30.92;;
26325;SDS011;14032;52.510;7.342;2023-11-21T02:29:49;93.88;;;28.58;;
26325;SDS011;14032;52.510;7.342;2023-11-21T02:32:15;98.10;;;28.88;;
26325;SDS011;14032;52.510;7.342;2023-11-21T02:34:42;98.72;;;29.08;;
26325;SDS011;14032;52.510;7.342;2023-11-21T02:37:08;99.10;;;29.65;;
26325;SDS011;14032;52.510;7.342;2023-11-21T02:39:35;99.53;;;29.00;;
26325;SDS011;14032;52.510;7.342;2023-11-21T02:42:00;101.07;;;30.75;;
26325;SDS011;14032;52.510;7.342;2023-11-21T02:44:26;93.28;;;27.75;;
26325;SDS011;14032;52.510;7.342;2023-11-21T02:46:51;96.20;;;28.77;;
26325;SDS011;14032;52.510;7.342;2023-11-21T02:49:17;89.72;;;27.50;;
26325;SDS011;14032;52.510;7.342;2023-11-21T02:51:42;95.20;;;28.25;;
26325;SDS011;14032;52.510;7.342;2023-11-21T02:54:08;88.85;;;26.85;;
26325;SDS011;14032;52.510;7.342;2023-11-21T02:56:34;103.75;;;27.95;;
26325;SDS011;14032;52.510;7.342;2023-11-21T02:58:59;85.88;;;26.40;;
26325;SDS011;14032;52.510;7.342;2023-11-21T03:01:26;92.97;;;28.08;;
26325;SDS011;14032;52.510;7.342;2023-11-21T03:03:52;92.60;;;25.83;;
26325;SDS011;14032;52.510;7.342;2023-11-21T03:06:21;89.38;;;28.70;;
26325;SDS011;14032;52.510;7.342;2023-11-21T03:08:47;84.50;;;25.67;;
26325;SDS011;14032;52.510;7.342;2023-11-21T03:11:13;93.57;;;26.88;;
26325;SDS011;14032;52.510;7.342;2023-11-21T03:13:40;82.35;;;26.20;;
26325;SDS011;14032;52.510;7.342;2023-11-21T03:16:07;84.15;;;27.15;;
26325;SDS011;14032;52.510;7.342;2023-11-21T03:18:37;84.22;;;26.30;;
26325;SDS011;14032;52.510;7.342;2023-11-21T03:21:03;85.35;;;26.77;;
26325;SDS011;14032;52.510;7.342;2023-11-21T03:23:30;94.47;;;28.08;;
26325;SDS011;14032;52.510;7.342;2023-11-21T03:25:55;95.88;;;28.00;;
26325;SDS011;14032;52.510;7.342;2023-11-21T03:28:21;88.45;;;26.80;;
26325;SDS011;14032;52.510;7.342;2023-11-21T03:30:47;86.13;;;27.00;;
26325;SDS011;14032;52.510;7.342;2023-11-21T03:33:12;92.70;;;27.55;;
26325;SDS011;14032;52.510;7.342;2023-11-21T03:35:38;85.28;;;26.17;;
26325;SDS011;14032;52.510;7.342;2023-11-21T03:38:03;86.47;;;26.73;;
26325;SDS011;14032;52.510;7.342;2023-11-21T03:40:29;94.13;;;28.45;;
26325;SDS011;14032;52.510;7.342;2023-11-21T03:42:56;93.28;;;27.75;;
26325;SDS011;14032;52.510;7.342;2023-11-21T03:45:22;99.88;;;29.10;;
26325;SDS011;14032;52.510;7.342;2023-11-21T03:47:48;100.63;;;28.27;;
26325;SDS011;14032;52.510;7.342;2023-11-21T03:50:13;78.43;;;26.10;;
26325;SDS011;14032;52.510;7.342;2023-11-21T03:52:39;103.30;;;29.30;;
26325;SDS011;14032;52.510;7.342;2023-11-21T03:55:04;98.85;;;28.45;;
26325;SDS011;14032;52.510;7.342;2023-11-21T03:57:30;91.55;;;27.90;;
26325;SDS011;14032;52.510;7.342;2023-11-21T03:59:56;88.57;;;26.90;;
26325;SDS011;14032;52.510;7.342;2023-11-21T04:02:21;98.32;;;27.38;;
26325;SDS011;14032;52.510;7.342;2023-11-21T04:04:47;90.85;;;27.63;;
26325;SDS011;14032;52.510;7.342;2023-11-21T04:07:12;95.68;;;28.85;;
26325;SDS011;14032;52.510;7.342;2023-11-21T04:09:38;98.97;;;28.35;;
26325;SDS011;14032;52.510;7.342;2023-11-21T04:12:04;88.43;;;28.15;;
26325;SDS011;14032;52.510;7.342;2023-11-21T04:14:30;80.22;;;27.02;;
26325;SDS011;14032;52.510;7.342;2023-11-21T04:16:57;87.07;;;26.60;;
26325;SDS011;14032;52.510;7.342;2023-11-21T04:19:23;79.40;;;27.42;;
26325;SDS011;14032;52.510;7.342;2023-11-21T04:21:48;84.70;;;27.63;;
26325;SDS011;14032;52.510;7.342;2023-11-21T04:24:14;83.38;;;26.67;;
26325;SDS011;14032;52.510;7.342;2023-11-21T04:26:40;76.00;;;25.95;;
26325;SDS011;14032;52.510;7.342;2023-11-21T04:29:06;82.93;;;25.63;;
26325;SDS011;14032;52.510;7.342;2023-11-21T04:31:32;71.20;;;25.48;;
26325;SDS011;14032;52.510;7.342;2023-11-21T04:33:57;78.38;;;26.00;;
26325;SDS011;14032;52.510;7.342;2023-11-21T04:36:23;81.82;;;28.25;;
26325;SDS011;14032;52.510;7.342;2023-11-21T04:38:49;91.10;;;29.52;;
26325;SDS011;14032;52.510;7.342;2023-11-21T04:41:14;83.15;;;27.33;;
26325;SDS011;14032;52.510;7.342;2023-11-21T04:43:40;72.90;;;27.00;;
26325;SDS011;14032;52.510;7.342;2023-11-21T04:46:07;80.00;;;27.10;;
26325;SDS011;14032;52.510;7.342;2023-11-21T04:48:32;83.47;;;26.85;;
26325;SDS011;14032;52.510;7.342;2023-11-21T04:50:58;73.32;;;26.88;;
26325;SDS011;14032;52.510;7.342;2023-11-21T04:53:24;76.35;;;26.70;;
26325;SDS011;14032;52.510;7.342;2023-11-21T04:55:49;76.93;;;25.88;;
26325;SDS011;14032;52.510;7.342;2023-11-21T04:58:15;74.13;;;26.95;;
26325;SDS011;14032;52.510;7.342;2023-11-21T05:00:40;79.55;;;25.90;;
26325;SDS011;14032;52.510;7.342;2023-11-21T05:03:06;83.45;;;27.38;;
26325;SDS011;14032;52.510;7.342;2023-11-21T05:05:32;85.57;;;27.73;;
26325;SDS011;14032;52.510;7.342;2023-11-21T05:07:59;76.93;;;26.48;;
26325;SDS011;14032;52.510;7.342;2023-11-21T05:10:24;82.65;;;28.48;;
26325;SDS011;14032;52.510;7.342;2023-11-21T05:12:50;67.45;;;25.10;;
26325;SDS011;14032;52.510;7.342;2023-11-21T05:15:16;88.63;;;27.90;;
26325;SDS011;14032;52.510;7.342;2023-11-21T05:17:42;73.18;;;26.38;;
26325;SDS011;14032;52.510;7.342;2023-11-21T05:20:12;84.90;;;28.50;;
26325;SDS011;14032;52.510;7.342;2023-11-21T05:22:39;86.63;;;28.50;;
26325;SDS011;14032;52.510;7.342;2023-11-21T05:25:07;68.95;;;25.83;;
26325;SDS011;14032;52.510;7.342;2023-11-21T05:27:33;82.15;;;28.42;;
26325;SDS011;14032;52.510;7.342;2023-11-21T05:30:00;94.80;;;29.30;;
26325;SDS011;14032;52.510;7.342;2023-11-21T05:32:33;93.00;;;29.00;;
26325;SDS011;14032;52.510;7.342;2023-11-21T05:34:59;89.65;;;29.65;;
26325;SDS011;14032;52.510;7.342;2023-11-21T05:37:24;86.22;;;28.42;;
26325;SDS011;14032;52.510;7.342;2023-11-21T05:39:52;89.47;;;28.55;;
26325;SDS011;14032;52.510;7.342;2023-11-21T05:42:18;82.97;;;28.05;;
26325;SDS011;14032;52.510;7.342;2023-11-21T05:44:43;90.30;;;29.52;;
26325;SDS011;14032;52.510;7.342;2023-11-21T05:47:09;81.75;;;27.40;;
26325;SDS011;14032;52.510;7.342;2023-11-21T05:49:35;83.68;;;29.05;;
26325;SDS011;14032;52.510;7.342;2023-11-21T05:52:01;79.60;;;28.15;;
26325;SDS011;14032;52.510;7.342;2023-11-21T05:54:27;88.07;;;28.98;;
26325;SDS011;14032;52.510;7.342;2023-11-21T05:56:53;84.50;;;28.20;;
26325;SDS011;14032;52.510;7.342;2023-11-21T05:59:19;87.20;;;29.65;;
26325;SDS011;14032;52.510;7.342;2023-11-21T06:01:45;81.82;;;27.92;;
26325;SDS011;14032;52.510;7.342;2023-11-21T06:04:10;75.30;;;25.75;;
26325;SDS011;14032;52.510;7.342;2023-11-21T06:06:37;84.32;;;28.15;;
26325;SDS011;14032;52.510;7.342;2023-11-21T06:09:04;83.40;;;29.00;;
26325;SDS011;14032;52.510;7.342;2023-11-21T06:11:31;73.70;;;25.65;;
26325;SDS011;14032;52.510;7.342;2023-11-21T06:13:56;57.53;;;22.40;;
26325;SDS011;14032;52.510;7.342;2023-11-21T06:16:23;66.30;;;23.48;;
26325;SDS011;14032;52.510;7.342;2023-11-21T06:18:49;82.05;;;28.98;;
26325;SDS011;14032;52.510;7.342;2023-11-21T06:21:14;68.70;;;26.02;;
26325;SDS011;14032;52.510;7.342;2023-11-21T06:23:41;79.30;;;27.20;;
26325;SDS011;14032;52.510;7.342;2023-11-21T06:26:07;66.97;;;26.27;;
26325;SDS011;14032;52.510;7.342;2023-11-21T06:28:34;64.55;;;24.48;;
26325;SDS011;14032;52.510;7.342;2023-11-21T06:31:01;50.55;;;20.45;;
26325;SDS011;14032;52.510;7.342;2023-11-21T06:33:33;49.22;;;20.75;;
26325;SDS011;14032;52.510;7.342;2023-11-21T06:35:59;52.85;;;22.67;;
26325;SDS011;14032;52.510;7.342;2023-11-21T06:38:27;44.60;;;19.73;;
26325;SDS011;14032;52.510;7.342;2023-11-21T06:40:55;51.55;;;22.58;;
26325;SDS011;14032;52.510;7.342;2023-11-21T06:43:21;44.17;;;18.88;;
26325;SDS011;14032;52.510;7.342;2023-11-21T06:45:47;37.47;;;16.95;;
26325;SDS011;14032;52.510;7.342;2023-11-21T06:48:12;47.10;;;19.80;;
26325;SDS011;14032;52.510;7.342;2023-11-21T06:50:40;35.70;;;16.38;;
26325;SDS011;14032;52.510;7.342;2023-11-21T06:53:07;39.95;;;17.13;;
26325;SDS011;14032;52.510;7.342;2023-11-21T06:55:34;31.10;;;15.02;;
26325;SDS011;14032;52.510;7.342;2023-11-21T06:58:00;36.60;;;16.48;;
26325;SDS011;14032;52.510;7.342;2023-11-21T07:00:27;30.10;;;14.05;;
26325;SDS011;14032;52.510;7.342;2023-11-21T07:02:53;32.45;;;15.98;;
26325;SDS011;14032;52.510;7.342;2023-11-21T07:05:20;38.60;;;17.63;;
26325;SDS011;14032;52.510;7.342;2023-11-21T07:07:47;30.08;;;14.73;;
26325;SDS011;14032;52.510;7.342;2023-11-21T07:10:13;37.60;;;15.02;;
26325;SDS011;14032;52.510;7.342;2023-11-21T07:12:39;40.85;;;16.83;;
26325;SDS011;14032;52.510;7.342;2023-11-21T07:15:05;34.83;;;15.63;;
26325;SDS011;14032;52.510;7.342;2023-11-21T07:17:34;31.70;;;15.40;;
26325;SDS011;14032;52.510;7.342;2023-11-21T07:20:00;29.42;;;14.35;;
26325;SDS011;14032;52.510;7.342;2023-11-21T07:22:26;34.63;;;14.32;;
26325;SDS011;14032;52.510;7.342;2023-11-21T07:24:52;31.90;;;14.60;;
26325;SDS011;14032;52.510;7.342;2023-11-21T07:27:17;28.45;;;14.40;;
26325;SDS011;14032;52.510;7.342;2023-11-21T07:29:43;33.10;;;14.60;;
26325;SDS011;14032;52.510;7.342;2023-11-21T07:32:09;27.70;;;13.40;;
26325;SDS011;14032;52.510;7.342;2023-11-21T07:34:35;45.25;;;18.60;;
26325;SDS011;14032;52.510;7.342;2023-11-21T07:37:01;38.92;;;18.52;;
26325;SDS011;14032;52.510;7.342;2023-11-21T07:39:27;45.35;;;20.88;;
26325;SDS011;14032;52.510;7.342;2023-11-21T07:41:53;41.10;;;18.02;;
26325;SDS011;14032;52.510;7.342;2023-11-21T07:44:19;48.10;;;19.95;;
26325;SDS011;14032;52.510;7.342;2023-11-21T07:46:45;46.42;;;19.50;;
26325;SDS011;14032;52.510;7.342;2023-11-21T07:49:10;37.78;;;17.25;;
26325;SDS011;14032;52.510;7.342;2023-11-21T07:51:36;39.28;;;17.20;;
26325;SDS011;14032;52.510;7.342;2023-11-21T07:54:02;45.83;;;18.65;;
26325;SDS011;14032;52.510;7.342;2023-11-21T07:56:28;43.40;;;18.17;;
26325;SDS011;14032;52.510;7.342;2023-11-21T07:58:53;39.28;;;17.80;;
26325;SDS011;14032;52.510;7.342;2023-11-21T08:01:19;43.47;;;17.75;;
26325;SDS011;14032;52.510;7.342;2023-11-21T08:03:44;37.70;;;17.02;;
26325;SDS011;14032;52.510;7.342;2023-11-21T08:06:10;39.70;;;18.05;;
26325;SDS011;14032;52.510;7.342;2023-11-21T08:08:37;44.90;;;18.23;;
26325;SDS011;14032;52.510;7.342;2023-11-21T08:11:02;43.67;;;18.88;;
26325;SDS011;14032;52.510;7.342;2023-11-21T08:13:28;42.92;;;18.42;;
26325;SDS011;14032;52.510;7.342;2023-11-21T08:15:57;53.45;;;20.63;;
26325;SDS011;14032;52.510;7.342;2023-11-21T08:18:27;55.17;;;20.20;;
26325;SDS011;14032;52.510;7.342;2023-11-21T08:20:56;54.03;;;21.77;;
26325;SDS011;14032;52.510;7.342;2023-11-21T08:23:25;54.22;;;19.08;;
26325;SDS011;14032;52.510;7.342;2023-11-21T08:25:51;53.83;;;20.83;;
26325;SDS011;14032;52.510;7.342;2023-11-21T08:28:18;56.58;;;20.70;;
26325;SDS011;14032;52.510;7.342;2023-11-21T08:30:43;57.10;;;20.95;;
26325;SDS011;14032;52.510;7.342;2023-11-21T08:33:09;53.47;;;20.90;;
26325;SDS011;14032;52.510;7.342;2023-11-21T08:35:36;62.95;;;22.33;;
26325;SDS011;14032;52.510;7.342;2023-11-21T08:38:02;59.00;;;21.15;;
26325;SDS011;14032;52.510;7.342;2023-11-21T08:40:29;62.40;;;22.33;;
26325;SDS011;14032;52.510;7.342;2023-11-21T08:42:54;62.25;;;21.90;;
26325;SDS011;14032;52.510;7.342;2023-11-21T08:45:23;68.38;;;23.38;;
26325;SDS011;14032;52.510;7.342;2023-11-21T08:47:50;69.25;;;24.45;;
26325;SDS011;14032;52.510;7.342;2023-11-21T08:50:16;61.58;;;23.13;;
26325;SDS011;14032;52.510;7.342;2023-11-21T08:52:42;71.20;;;24.33;;
26325;SDS011;14032;52.510;7.342;2023-11-21T08:55:10;71.38;;;24.52;;
26325;SDS011;14032;52.510;7.342;2023-11-21T08:57:37;82.03;;;25.23;;
26325;SDS011;14032;52.510;7.342;2023-11-21T09:00:04;67.35;;;24.35;;
26325;SDS011;14032;52.510;7.342;2023-11-21T09:02:36;68.63;;;25.00;;
26325;SDS011;14032;52.510;7.342;2023-11-21T09:05:02;76.07;;;25.98;;
26325;SDS011;14032;52.510;7.342;2023-11-21T09:07:29;74.38;;;26.13;;
26325;SDS011;14032;52.510;7.342;2023-11-21T09:09:55;73.10;;;25.10;;
26325;SDS011;14032;52.510;7.342;2023-11-21T09:12:21;72.25;;;25.55;;
26325;SDS011;14032;52.510;7.342;2023-11-21T09:14:46;74.68;;;25.02;;
26325;SDS011;14032;52.510;7.342;2023-11-21T09:17:12;78.63;;;26.67;;
26325;SDS011;14032;52.510;7.342;2023-11-21T09:19:39;89.10;;;29.60;;
26325;SDS011;14032;52.510;7.342;2023-11-21T09:22:05;73.57;;;27.48;;
26325;SDS011;14032;52.510;7.342;2023-11-21T09:24:31;77.47;;;25.05;;
26325;SDS011;14032;52.510;7.342;2023-11-21T09:26:57;80.03;;;27.25;;
26325;SDS011;14032;52.510;7.342;2023-11-21T09:29:24;72.90;;;25.88;;
26325;SDS011;14032;52.510;7.342;2023-11-21T09:31:53;79.15;;;27.10;;
26325;SDS011;14032;52.510;7.342;2023-11-21T09:34:20;77.95;;;27.13;;
26325;SDS011;14032;52.510;7.342;2023-11-21T09:36:46;73.03;;;26.27;;
26325;SDS011;14032;52.510;7.342;2023-11-21T09:39:12;71.07;;;25.10;;
26325;SDS011;14032;52.510;7.342;2023-11-21T09:44:11;75.32;;;25.42;;
26325;SDS011;14032;52.510;7.342;2023-11-21T09:46:42;88.63;;;27.23;;
26325;SDS011;14032;52.510;7.342;2023-11-21T09:49:09;80.60;;;25.27;;
26325;SDS011;14032;52.510;7.342;2023-11-21T09:51:39;83.68;;;26.92;;
26325;SDS011;14032;52.510;7.342;2023-11-21T09:54:07;83.80;;;27.40;;
26325;SDS011;14032;52.510;7.342;2023-11-21T09:56:35;79.68;;;27.95;;
26325;SDS011;14032;52.510;7.342;2023-11-21T09:59:02;81.25;;;28.52;;
26325;SDS011;14032;52.510;7.342;2023-11-21T10:01:34;81.75;;;29.58;;
26325;SDS011;14032;52.510;7.342;2023-11-21T10:04:02;88.57;;;30.13;;
26325;SDS011;14032;52.510;7.342;2023-11-21T10:06:29;88.70;;;31.42;;
26325;SDS011;14032;52.510;7.342;2023-11-21T10:08:57;81.38;;;30.35;;
26325;SDS011;14032;52.510;7.342;2023-11-21T10:11:27;79.35;;;31.38;;
26325;SDS011;14032;52.510;7.342;2023-11-21T10:13:54;72.85;;;28.23;;
26325;SDS011;14032;52.510;7.342;2023-11-21T10:16:22;63.28;;;25.08;;
26325;SDS011;14032;52.510;7.342;2023-11-21T10:18:52;60.17;;;24.85;;
26325;SDS011;14032;52.510;7.342;2023-11-21T10:21:22;63.90;;;24.25;;
26325;SDS011;14032;52.510;7.342;2023-11-21T10:23:48;56.60;;;24.58;;
26325;SDS011;14032;52.510;7.342;2023-11-21T10:26:15;58.53;;;24.80;;
26325;SDS011;14032;52.510;7.342;2023-11-21T10:28:54;45.42;;;22.60;;
26325;SDS011;14032;52.510;7.342;2023-11-21T10:31:26;52.10;;;22.65;;
26325;SDS011;14032;52.510;7.342;2023-11-21T10:33:52;52.88;;;21.48;;
26325;SDS011;14032;52.510;7.342;2023-11-21T10:36:25;42.30;;;21.50;;
26325;SDS011;14032;52.510;7.342;2023-11-21T10:38:51;48.60;;;21.05;;
26325;SDS011;14032;52.510;7.342;2023-11-21T10:41:18;46.30;;;21.67;;
26325;SDS011;14032;52.510;7.342;2023-11-21T10:43:44;48.95;;;21.60;;
26325;SDS011;14032;52.510;7.342;2023-11-21T10:46:09;47.75;;;23.00;;
26325;SDS011;14032;52.510;7.342;2023-11-21T10:48:35;48.45;;;22.38;;
26325;SDS011;14032;52.510;7.342;2023-11-21T10:51:06;45.70;;;22.65;;
26325;SDS011;14032;52.510;7.342;2023-11-21T10:53:40;48.25;;;23.77;;
26325;SDS011;14032;52.510;7.342;2023-11-21T10:58:43;47.40;;;22.50;;
26325;SDS011;14032;52.510;7.342;2023-11-21T11:01:08;39.65;;;22.02;;
26325;SDS011;14032;52.510;7.342;2023-11-21T11:03:37;42.67;;;22.38;;
26325;SDS011;14032;52.510;7.342;2023-11-21T11:06:06;42.22;;;23.25;;
26325;SDS011;14032;52.510;7.342;2023-11-21T11:08:36;43.30;;;23.73;;
26325;SDS011;14032;52.510;7.342;2023-11-21T11:11:04;39.78;;;22.52;;
26325;SDS011;14032;52.510;7.342;2023-11-21T11:13:30;42.20;;;22.90;;
26325;SDS011;14032;52.510;7.342;2023-11-21T11:16:00;40.45;;;23.38;;
26325;SDS011;14032;52.510;7.342;2023-11-21T11:18:32;39.33;;;23.65;;
26325;SDS011;14032;52.510;7.342;2023-11-21T11:21:20;34.75;;;22.05;;
26325;SDS011;14032;52.510;7.342;2023-11-21T11:23:53;38.08;;;23.00;;
26325;SDS011;14032;52.510;7.342;2023-11-21T11:26:56;34.58;;;22.05;;
26325;SDS011;14032;52.510;7.342;2023-11-21T11:29:33;33.08;;;20.58;;
26325;SDS011;14032;52.510;7.342;2023-11-21T11:32:13;26.40;;;18.58;;
26325;SDS011;14032;52.510;7.342;2023-11-21T11:35:04;25.40;;;18.05;;
26325;SDS011;14032;52.510;7.342;2023-11-21T11:37:41;22.98;;;17.05;;
26325;SDS011;14032;52.510;7.342;2023-11-21T11:40:11;28.58;;;19.70;;
26325;SDS011;14032;52.510;7.342;2023-11-21T11:42:37;27.88;;;17.10;;
26325;SDS011;14032;52.510;7.342;2023-11-21T11:45:05;25.83;;;17.08;;
26325;SDS011;14032;52.510;7.342;2023-11-21T11:47:44;25.10;;;16.08;;
26325;SDS011;14032;52.510;7.342;2023-11-21T11:50:17;21.70;;;15.27;;
26325;SDS011;14032;52.510;7.342;2023-11-21T11:52:45;28.42;;;16.90;;
26325;SDS011;14032;52.510;7.342;2023-11-21T11:55:18;25.02;;;15.25;;
26325;SDS011;14032;52.510;7.342;2023-11-21T11:57:47;25.80;;;16.15;;
26325;SDS011;14032;52.510;7.342;2023-11-21T12:03:00;23.20;;;15.48;;
26325;SDS011;14032;52.510;7.342;2023-11-21T12:05:31;23.08;;;15.45;;
26325;SDS011;14032;52.510;7.342;2023-11-21T12:08:10;18.85;;;13.70;;
26325;SDS011;14032;52.510;7.342;2023-11-21T12:10:37;24.13;;;15.35;;
26325;SDS011;14032;52.510;7.342;2023-11-21T12:13:05;20.38;;;13.02;;
26325;SDS011;14032;52.510;7.342;2023-11-21T12:15:37;17.80;;;12.55;;
26325;SDS011;14032;52.510;7.342;2023-11-21T12:18:03;19.13;;;13.50;;
26325;SDS011;14032;52.510;7.342;2023-11-21T12:20:30;16.55;;;11.88;;
26325;SDS011;14032;52.510;7.342;2023-11-21T12:22:59;17.83;;;11.73;;
26325;SDS011;14032;52.510;7.342;2023-11-21T12:25:26;15.80;;;10.98;;
26325;SDS011;14032;52.510;7.342;2023-11-21T12:27:57;18.70;;;11.50;;
26325;SDS011;14032;52.510;7.342;2023-11-21T12:30:24;16.65;;;11.10;;
26325;SDS011;14032;52.510;7.342;2023-11-21T12:32:56;17.35;;;11.50;;
26325;SDS011;14032;52.510;7.342;2023-11-21T12:35:26;15.68;;;10.93;;
26325;SDS011;14032;52.510;7.342;2023-11-21T12:37:55;16.58;;;10.43;;
26325;SDS011;14032;52.510;7.342;2023-11-21T12:40:24;17.33;;;10.60;;
26325;SDS011;14032;52.510;7.342;2023-11-21T12:42:54;14.15;;;9.95;;
26325;SDS011;14032;52.510;7.342;2023-11-21T12:45:27;15.73;;;10.40;;
26325;SDS011;14032;52.510;7.342;2023-11-21T12:47:55;14.77;;;10.27;;
26325;SDS011;14032;52.510;7.342;2023-11-21T12:50:24;14.77;;;9.60;;
26325;SDS011;14032;52.510;7.342;2023-11-21T12:53:03;14.48;;;9.82;;
26325;SDS011;14032;52.510;7.342;2023-11-21T12:55:31;18.52;;;9.90;;
26325;SDS011;14032;52.510;7.342;2023-11-21T12:57:59;15.88;;;9.85;;
26325;SDS011;14032;52.510;7.342;2023-11-21T13:00:34;14.20;;;9.63;;
26325;SDS011;14032;52.510;7.342;2023-11-21T13:03:05;16.38;;;9.57;;
26325;SDS011;14032;52.510;7.342;2023-11-21T13:05:36;14.20;;;9.85;;
26325;SDS011;14032;52.510;7.342;2023-11-21T13:08:04;15.50;;;9.65;;
26325;SDS011;14032;52.510;7.342;2023-11-21T13:10:38;16.60;;;8.93;;
26325;SDS011;14032;52.510;7.342;2023-11-21T13:13:05;13.27;;;9.00;;
26325;SDS011;14032;52.510;7.342;2023-11-21T13:15:33;14.45;;;9.70;;
26325;SDS011;14032;52.510;7.342;2023-11-21T13:18:01;13.95;;;9.75;;
26325;SDS011;14032;52.510;7.342;2023-11-21T13:20:28;11.48;;;8.30;;
26325;SDS011;14032;52.510;7.342;2023-11-21T13:22:55;16.83;;;9.27;;
26325;SDS011;14032;52.510;7.342;2023-11-21T13:25:25;17.52;;;10.70;;
26325;SDS011;14032;52.510;7.342;2023-11-21T13:27:55;20.50;;;11.23;;
26325;SDS011;14032;52.510;7.342;2023-11-21T13:30:25;17.33;;;11.27;;
26325;SDS011;14032;52.510;7.342;2023-11-21T13:32:55;16.55;;;9.88;;
26325;SDS011;14032;52.510;7.342;2023-11-21T13:35:22;14.60;;;10.20;;
26325;SDS011;14032;52.510;7.342;2023-11-21T13:37:57;17.80;;;11.02;;
26325;SDS011;14032;52.510;7.342;2023-11-21T13:40:54;16.48;;;11.57;;
26325;SDS011;14032;52.510;7.342;2023-11-21T13:43:21;18.35;;;10.57;;
26325;SDS011;14032;52.510;7.342;2023-11-21T13:45:51;16.77;;;10.93;;
26325;SDS011;14032;52.510;7.342;2023-11-21T13:48:26;19.98;;;11.77;;
26325;SDS011;14032;52.510;7.342;2023-11-21T13:51:07;17.83;;;10.23;;
26325;SDS011;14032;52.510;7.342;2023-11-21T13:53:42;16.05;;;11.57;;
26325;SDS011;14032;52.510;7.342;2023-11-21T13:56:14;15.30;;;11.00;;
26325;SDS011;14032;52.510;7.342;2023-11-21T13:58:48;14.45;;;10.60;;
26325;SDS011;14032;52.510;7.342;2023-11-21T14:01:18;17.42;;;11.18;;
26325;SDS011;14032;52.510;7.342;2023-11-21T14:04:06;21.95;;;12.27;;
26325;SDS011;14032;52.510;7.342;2023-11-21T14:06:42;16.35;;;12.38;;
26325;SDS011;14032;52.510;7.342;2023-11-21T14:09:23;17.25;;;11.98;;
26325;SDS011;14032;52.510;7.342;2023-11-21T14:11:58;16.40;;;11.65;;
26325;SDS011;14032;52.510;7.342;2023-11-21T14:14:25;13.95;;;10.98;;
26325;SDS011;14032;52.510;7.342;2023-11-21T14:16:52;18.25;;;11.95;;
26325;SDS011;14032;52.510;7.342;2023-11-21T14:19:19;17.77;;;11.20;;
26325;SDS011;14032;52.510;7.342;2023-11-21T14:21:46;15.13;;;10.95;;
26325;SDS011;14032;52.510;7.342;2023-11-21T14:24:13;15.90;;;11.57;;
26325;SDS011;14032;52.510;7.342;2023-11-21T14:26:42;15.75;;;12.13;;
26325;SDS011;14032;52.510;7.342;2023-11-21T14:29:10;17.63;;;12.88;;
26325;SDS011;14032;52.510;7.342;2023-11-21T14:31:39;15.15;;;12.13;;